sensor_id;sensor_type;location;lat;lon;timestamp;P1;durP1;ratioP1;P2;durP2;ratioP2
19525;SDS011;9907;42.676;26.348;2022-11-23T00:01:32;5.13;;;3.10;;
19525;SDS011;9907;42.676;26.348;2022-11-23T00:04:02;5.20;;;3.07;;
19525;SDS011;9907;42.676;26.348;2022-11-23T00:06:34;3.07;;;2.57;;
19525;SDS011;9907;42.676;26.348;2022-11-23T00:09:00;4.40;;;2.87;;
19525;SDS011;9907;42.676;26.348;2022-11-23T00:11:26;3.63;;;3.30;;
19525;SDS011;9907;42.676;26.348;2022-11-23T00:13:52;3.60;;;2.80;;
19525;SDS011;9907;42.676;26.348;2022-11-23T00:16:19;4.77;;;3.27;;
19525;SDS011;9907;42.676;26.348;2022-11-23T00:18:47;3.77;;;2.90;;
19525;SDS011;9907;42.676;26.348;2022-11-23T00:21:13;3.40;;;3.07;;
19525;SDS011;9907;42.676;26.348;2022-11-23T00:23:40;4.47;;;3.30;;
19525;SDS011;9907;42.676;26.348;2022-11-23T00:26:06;4.77;;;3.10;;
19525;SDS011;9907;42.676;26.348;2022-11-23T00:28:32;5.00;;;3.63;;
19525;SDS011;9907;42.676;26.348;2022-11-23T00:31:01;4.60;;;3.40;;
19525;SDS011;9907;42.676;26.348;2022-11-23T00:33:26;5.00;;;3.43;;
19525;SDS011;9907;42.676;26.348;2022-11-23T00:35:58;3.13;;;2.60;;
19525;SDS011;9907;42.676;26.348;2022-11-23T00:38:31;3.97;;;3.07;;
19525;SDS011;9907;42.676;26.348;2022-11-23T00:40:58;4.17;;;2.80;;
19525;SDS011;9907;42.676;26.348;2022-11-23T00:43:25;4.70;;;3.30;;
19525;SDS011;9907;42.676;26.348;2022-11-23T00:46:04;3.30;;;2.90;;
19525;SDS011;9907;42.676;26.348;2022-11-23T00:48:43;4.37;;;3.20;;
19525;SDS011;9907;42.676;26.348;2022-11-23T00:51:12;4.00;;;2.93;;
19525;SDS011;9907;42.676;26.348;2022-11-23T00:53:39;4.23;;;2.83;;
19525;SDS011;9907;42.676;26.348;2022-11-23T00:56:05;5.30;;;2.90;;
19525;SDS011;9907;42.676;26.348;2022-11-23T00:58:31;4.07;;;3.40;;
19525;SDS011;9907;42.676;26.348;2022-11-23T01:01:04;5.20;;;2.83;;
19525;SDS011;9907;42.676;26.348;2022-11-23T01:03:39;3.20;;;2.53;;
19525;SDS011;9907;42.676;26.348;2022-11-23T01:06:12;3.20;;;2.90;;
19525;SDS011;9907;42.676;26.348;2022-11-23T01:08:40;4.10;;;2.80;;
19525;SDS011;9907;42.676;26.348;2022-11-23T01:11:10;2.53;;;2.33;;
19525;SDS011;9907;42.676;26.348;2022-11-23T01:13:37;3.77;;;2.80;;
19525;SDS011;9907;42.676;26.348;2022-11-23T01:16:04;3.83;;;2.60;;
19525;SDS011;9907;42.676;26.348;2022-11-23T01:18:32;4.70;;;2.60;;
19525;SDS011;9907;42.676;26.348;2022-11-23T01:20:59;2.80;;;2.30;;
19525;SDS011;9907;42.676;26.348;2022-11-23T01:23:27;4.47;;;2.60;;
19525;SDS011;9907;42.676;26.348;2022-11-23T01:25:53;2.80;;;2.50;;
19525;SDS011;9907;42.676;26.348;2022-11-23T01:28:18;4.67;;;2.27;;
19525;SDS011;9907;42.676;26.348;2022-11-23T01:30:44;3.00;;;2.40;;
19525;SDS011;9907;42.676;26.348;2022-11-23T01:33:09;3.50;;;2.40;;
19525;SDS011;9907;42.676;26.348;2022-11-23T01:35:35;5.03;;;2.70;;
19525;SDS011;9907;42.676;26.348;2022-11-23T01:38:00;2.93;;;2.37;;
19525;SDS011;9907;42.676;26.348;2022-11-23T01:40:26;5.10;;;2.57;;
19525;SDS011;9907;42.676;26.348;2022-11-23T01:42:53;4.20;;;3.00;;
19525;SDS011;9907;42.676;26.348;2022-11-23T01:45:43;7.07;;;2.80;;
19525;SDS011;9907;42.676;26.348;2022-11-23T01:48:20;2.90;;;2.40;;
19525;SDS011;9907;42.676;26.348;2022-11-23T01:50:50;2.70;;;2.50;;
19525;SDS011;9907;42.676;26.348;2022-11-23T01:53:16;4.13;;;2.93;;
19525;SDS011;9907;42.676;26.348;2022-11-23T01:55:43;5.93;;;2.80;;
19525;SDS011;9907;42.676;26.348;2022-11-23T01:58:12;4.20;;;3.17;;
19525;SDS011;9907;42.676;26.348;2022-11-23T02:00:39;4.03;;;3.53;;
19525;SDS011;9907;42.676;26.348;2022-11-23T02:03:06;5.43;;;4.40;;
19525;SDS011;9907;42.676;26.348;2022-11-23T02:05:35;5.80;;;4.63;;
19525;SDS011;9907;42.676;26.348;2022-11-23T02:08:05;3.90;;;3.50;;
19525;SDS011;9907;42.676;26.348;2022-11-23T02:10:32;3.83;;;2.97;;
19525;SDS011;9907;42.676;26.348;2022-11-23T02:13:05;5.33;;;2.60;;
19525;SDS011;9907;42.676;26.348;2022-11-23T02:15:34;4.97;;;2.90;;
19525;SDS011;9907;42.676;26.348;2022-11-23T02:18:00;4.67;;;2.63;;
19525;SDS011;9907;42.676;26.348;2022-11-23T02:20:28;4.67;;;2.70;;
19525;SDS011;9907;42.676;26.348;2022-11-23T02:28:12;6.27;;;3.70;;
19525;SDS011;9907;42.676;26.348;2022-11-23T02:30:40;4.60;;;3.13;;
19525;SDS011;9907;42.676;26.348;2022-11-23T02:33:10;6.97;;;3.50;;
19525;SDS011;9907;42.676;26.348;2022-11-23T02:35:35;5.57;;;3.20;;
19525;SDS011;9907;42.676;26.348;2022-11-23T02:38:10;4.93;;;2.67;;
19525;SDS011;9907;42.676;26.348;2022-11-23T02:40:36;3.47;;;2.43;;
19525;SDS011;9907;42.676;26.348;2022-11-23T02:43:01;4.20;;;2.87;;
19525;SDS011;9907;42.676;26.348;2022-11-23T02:48:01;3.40;;;2.10;;
19525;SDS011;9907;42.676;26.348;2022-11-23T02:50:27;4.23;;;2.40;;
19525;SDS011;9907;42.676;26.348;2022-11-23T02:52:52;3.70;;;2.50;;
19525;SDS011;9907;42.676;26.348;2022-11-23T02:55:18;3.43;;;2.17;;
19525;SDS011;9907;42.676;26.348;2022-11-23T02:57:43;3.40;;;2.40;;
19525;SDS011;9907;42.676;26.348;2022-11-23T03:00:09;4.33;;;2.57;;
19525;SDS011;9907;42.676;26.348;2022-11-23T03:02:36;4.90;;;2.70;;
19525;SDS011;9907;42.676;26.348;2022-11-23T03:05:01;4.97;;;2.23;;
19525;SDS011;9907;42.676;26.348;2022-11-23T03:07:27;4.80;;;2.43;;
19525;SDS011;9907;42.676;26.348;2022-11-23T03:09:52;4.50;;;2.47;;
19525;SDS011;9907;42.676;26.348;2022-11-23T03:12:18;2.67;;;2.00;;
19525;SDS011;9907;42.676;26.348;2022-11-23T03:14:43;4.47;;;2.53;;
19525;SDS011;9907;42.676;26.348;2022-11-23T03:17:09;3.80;;;2.20;;
19525;SDS011;9907;42.676;26.348;2022-11-23T03:19:34;3.07;;;2.50;;
19525;SDS011;9907;42.676;26.348;2022-11-23T03:22:00;3.80;;;2.37;;
19525;SDS011;9907;42.676;26.348;2022-11-23T03:24:25;3.67;;;2.33;;
19525;SDS011;9907;42.676;26.348;2022-11-23T03:26:50;4.87;;;2.90;;
19525;SDS011;9907;42.676;26.348;2022-11-23T03:29:16;4.03;;;2.37;;
19525;SDS011;9907;42.676;26.348;2022-11-23T03:31:42;3.53;;;2.57;;
19525;SDS011;9907;42.676;26.348;2022-11-23T03:34:08;5.37;;;2.40;;
19525;SDS011;9907;42.676;26.348;2022-11-23T03:36:34;5.67;;;3.27;;
19525;SDS011;9907;42.676;26.348;2022-11-23T03:38:59;4.27;;;2.10;;
19525;SDS011;9907;42.676;26.348;2022-11-23T03:41:25;4.67;;;2.60;;
19525;SDS011;9907;42.676;26.348;2022-11-23T03:43:50;4.93;;;2.60;;
19525;SDS011;9907;42.676;26.348;2022-11-23T03:46:16;3.50;;;2.40;;
19525;SDS011;9907;42.676;26.348;2022-11-23T03:48:41;5.10;;;2.53;;
19525;SDS011;9907;42.676;26.348;2022-11-23T03:51:06;3.53;;;2.83;;
19525;SDS011;9907;42.676;26.348;2022-11-23T03:53:32;4.63;;;3.17;;
19525;SDS011;9907;42.676;26.348;2022-11-23T03:55:57;4.33;;;3.50;;
19525;SDS011;9907;42.676;26.348;2022-11-23T03:58:23;3.20;;;2.40;;
19525;SDS011;9907;42.676;26.348;2022-11-23T04:00:50;4.50;;;2.73;;
19525;SDS011;9907;42.676;26.348;2022-11-23T04:03:15;5.17;;;3.10;;
19525;SDS011;9907;42.676;26.348;2022-11-23T04:05:41;4.83;;;2.87;;
19525;SDS011;9907;42.676;26.348;2022-11-23T04:08:06;4.97;;;3.40;;
19525;SDS011;9907;42.676;26.348;2022-11-23T04:10:31;4.37;;;2.90;;
19525;SDS011;9907;42.676;26.348;2022-11-23T04:12:57;6.50;;;3.43;;
19525;SDS011;9907;42.676;26.348;2022-11-23T04:15:22;5.10;;;3.73;;
19525;SDS011;9907;42.676;26.348;2022-11-23T04:17:48;4.90;;;3.90;;
19525;SDS011;9907;42.676;26.348;2022-11-23T04:20:13;4.57;;;4.07;;
19525;SDS011;9907;42.676;26.348;2022-11-23T04:22:39;6.43;;;3.57;;
19525;SDS011;9907;42.676;26.348;2022-11-23T04:25:04;7.83;;;3.73;;
19525;SDS011;9907;42.676;26.348;2022-11-23T04:27:30;5.87;;;3.30;;
19525;SDS011;9907;42.676;26.348;2022-11-23T04:29:56;4.73;;;2.97;;
19525;SDS011;9907;42.676;26.348;2022-11-23T04:32:21;4.03;;;2.77;;
19525;SDS011;9907;42.676;26.348;2022-11-23T04:34:46;4.50;;;3.37;;
19525;SDS011;9907;42.676;26.348;2022-11-23T04:37:12;6.70;;;3.10;;
19525;SDS011;9907;42.676;26.348;2022-11-23T04:39:37;4.00;;;2.77;;
19525;SDS011;9907;42.676;26.348;2022-11-23T04:42:03;4.17;;;3.10;;
19525;SDS011;9907;42.676;26.348;2022-11-23T04:44:28;5.20;;;3.50;;
19525;SDS011;9907;42.676;26.348;2022-11-23T04:46:54;5.20;;;2.90;;
19525;SDS011;9907;42.676;26.348;2022-11-23T04:49:19;5.00;;;2.90;;
19525;SDS011;9907;42.676;26.348;2022-11-23T04:51:45;6.40;;;3.10;;
19525;SDS011;9907;42.676;26.348;2022-11-23T04:54:10;4.60;;;3.07;;
19525;SDS011;9907;42.676;26.348;2022-11-23T04:56:35;6.43;;;3.37;;
19525;SDS011;9907;42.676;26.348;2022-11-23T04:59:03;3.90;;;2.93;;
19525;SDS011;9907;42.676;26.348;2022-11-23T05:01:29;4.33;;;3.43;;
19525;SDS011;9907;42.676;26.348;2022-11-23T05:03:54;4.53;;;3.40;;
19525;SDS011;9907;42.676;26.348;2022-11-23T05:06:20;4.43;;;3.30;;
19525;SDS011;9907;42.676;26.348;2022-11-23T05:08:45;7.10;;;3.93;;
19525;SDS011;9907;42.676;26.348;2022-11-23T05:11:11;5.47;;;3.23;;
19525;SDS011;9907;42.676;26.348;2022-11-23T05:13:37;5.23;;;3.60;;
19525;SDS011;9907;42.676;26.348;2022-11-23T05:16:02;4.27;;;3.07;;
19525;SDS011;9907;42.676;26.348;2022-11-23T05:18:28;4.53;;;3.20;;
19525;SDS011;9907;42.676;26.348;2022-11-23T05:20:53;7.27;;;3.30;;
19525;SDS011;9907;42.676;26.348;2022-11-23T05:23:19;6.87;;;4.23;;
19525;SDS011;9907;42.676;26.348;2022-11-23T05:25:44;4.93;;;4.43;;
19525;SDS011;9907;42.676;26.348;2022-11-23T05:28:14;5.80;;;3.57;;
19525;SDS011;9907;42.676;26.348;2022-11-23T05:30:41;5.40;;;3.60;;
19525;SDS011;9907;42.676;26.348;2022-11-23T05:33:07;5.50;;;3.50;;
19525;SDS011;9907;42.676;26.348;2022-11-23T05:35:32;6.10;;;3.60;;
19525;SDS011;9907;42.676;26.348;2022-11-23T05:37:59;6.70;;;3.87;;
19525;SDS011;9907;42.676;26.348;2022-11-23T05:40:25;4.27;;;3.00;;
19525;SDS011;9907;42.676;26.348;2022-11-23T05:42:54;4.83;;;3.47;;
19525;SDS011;9907;42.676;26.348;2022-11-23T05:45:20;4.60;;;2.63;;
19525;SDS011;9907;42.676;26.348;2022-11-23T05:47:50;4.43;;;2.90;;
19525;SDS011;9907;42.676;26.348;2022-11-23T05:50:19;5.57;;;3.07;;
19525;SDS011;9907;42.676;26.348;2022-11-23T05:52:46;6.33;;;2.87;;
19525;SDS011;9907;42.676;26.348;2022-11-23T05:55:11;5.83;;;3.10;;
19525;SDS011;9907;42.676;26.348;2022-11-23T05:57:37;3.87;;;2.77;;
19525;SDS011;9907;42.676;26.348;2022-11-23T06:00:03;5.43;;;3.07;;
19525;SDS011;9907;42.676;26.348;2022-11-23T06:02:30;5.57;;;3.50;;
19525;SDS011;9907;42.676;26.348;2022-11-23T06:04:55;5.87;;;3.77;;
19525;SDS011;9907;42.676;26.348;2022-11-23T06:07:20;6.67;;;3.20;;
19525;SDS011;9907;42.676;26.348;2022-11-23T06:09:46;5.53;;;3.63;;
19525;SDS011;9907;42.676;26.348;2022-11-23T06:12:11;5.67;;;2.70;;
19525;SDS011;9907;42.676;26.348;2022-11-23T06:14:37;3.23;;;2.70;;
19525;SDS011;9907;42.676;26.348;2022-11-23T06:17:03;5.10;;;2.50;;
19525;SDS011;9907;42.676;26.348;2022-11-23T06:19:28;3.53;;;2.40;;
19525;SDS011;9907;42.676;26.348;2022-11-23T06:21:57;3.23;;;2.80;;
19525;SDS011;9907;42.676;26.348;2022-11-23T06:24:22;3.50;;;2.87;;
19525;SDS011;9907;42.676;26.348;2022-11-23T06:26:49;3.33;;;2.40;;
19525;SDS011;9907;42.676;26.348;2022-11-23T06:29:18;3.13;;;1.93;;
19525;SDS011;9907;42.676;26.348;2022-11-23T06:31:44;3.47;;;2.07;;
19525;SDS011;9907;42.676;26.348;2022-11-23T06:34:10;4.47;;;2.33;;
19525;SDS011;9907;42.676;26.348;2022-11-23T06:36:35;3.20;;;1.97;;
19525;SDS011;9907;42.676;26.348;2022-11-23T06:39:01;4.97;;;2.30;;
19525;SDS011;9907;42.676;26.348;2022-11-23T06:41:26;3.30;;;2.10;;
19525;SDS011;9907;42.676;26.348;2022-11-23T06:43:52;3.87;;;2.53;;
19525;SDS011;9907;42.676;26.348;2022-11-23T06:46:17;3.70;;;2.40;;
19525;SDS011;9907;42.676;26.348;2022-11-23T06:48:43;6.80;;;2.57;;
19525;SDS011;9907;42.676;26.348;2022-11-23T06:51:10;4.70;;;2.70;;
19525;SDS011;9907;42.676;26.348;2022-11-23T06:53:35;4.47;;;2.33;;
19525;SDS011;9907;42.676;26.348;2022-11-23T06:56:01;4.57;;;1.93;;
19525;SDS011;9907;42.676;26.348;2022-11-23T06:58:27;3.17;;;2.10;;
19525;SDS011;9907;42.676;26.348;2022-11-23T07:00:52;4.60;;;2.30;;
19525;SDS011;9907;42.676;26.348;2022-11-23T07:03:19;5.37;;;2.93;;
19525;SDS011;9907;42.676;26.348;2022-11-23T07:05:48;7.50;;;2.97;;
19525;SDS011;9907;42.676;26.348;2022-11-23T07:08:14;5.17;;;2.70;;
19525;SDS011;9907;42.676;26.348;2022-11-23T07:10:40;7.63;;;3.03;;
19525;SDS011;9907;42.676;26.348;2022-11-23T07:13:06;4.93;;;2.70;;
19525;SDS011;9907;42.676;26.348;2022-11-23T07:15:33;4.23;;;2.53;;
19525;SDS011;9907;42.676;26.348;2022-11-23T07:18:00;6.30;;;2.93;;
19525;SDS011;9907;42.676;26.348;2022-11-23T07:20:25;6.07;;;3.40;;
19525;SDS011;9907;42.676;26.348;2022-11-23T07:23:00;7.73;;;3.50;;
19525;SDS011;9907;42.676;26.348;2022-11-23T07:25:31;6.67;;;2.93;;
19525;SDS011;9907;42.676;26.348;2022-11-23T07:27:59;4.73;;;3.20;;
19525;SDS011;9907;42.676;26.348;2022-11-23T07:30:26;7.00;;;3.70;;
19525;SDS011;9907;42.676;26.348;2022-11-23T07:32:53;6.97;;;3.70;;
19525;SDS011;9907;42.676;26.348;2022-11-23T07:35:19;7.33;;;3.00;;
19525;SDS011;9907;42.676;26.348;2022-11-23T07:37:45;7.87;;;3.83;;
19525;SDS011;9907;42.676;26.348;2022-11-23T07:40:11;5.00;;;3.13;;
19525;SDS011;9907;42.676;26.348;2022-11-23T07:42:36;6.20;;;3.43;;
19525;SDS011;9907;42.676;26.348;2022-11-23T07:45:03;8.23;;;3.40;;
19525;SDS011;9907;42.676;26.348;2022-11-23T07:47:29;7.50;;;2.80;;
19525;SDS011;9907;42.676;26.348;2022-11-23T07:49:55;7.43;;;3.27;;
19525;SDS011;9907;42.676;26.348;2022-11-23T07:52:20;6.10;;;2.90;;
19525;SDS011;9907;42.676;26.348;2022-11-23T07:54:46;9.37;;;3.10;;
19525;SDS011;9907;42.676;26.348;2022-11-23T07:57:11;8.13;;;3.37;;
19525;SDS011;9907;42.676;26.348;2022-11-23T07:59:36;7.43;;;3.90;;
19525;SDS011;9907;42.676;26.348;2022-11-23T08:02:02;9.80;;;4.40;;
19525;SDS011;9907;42.676;26.348;2022-11-23T08:04:27;7.37;;;3.40;;
19525;SDS011;9907;42.676;26.348;2022-11-23T08:06:54;6.07;;;3.80;;
19525;SDS011;9907;42.676;26.348;2022-11-23T08:09:19;23.43;;;13.53;;
19525;SDS011;9907;42.676;26.348;2022-11-23T08:11:45;37.23;;;20.03;;
19525;SDS011;9907;42.676;26.348;2022-11-23T08:14:10;17.23;;;6.67;;
19525;SDS011;9907;42.676;26.348;2022-11-23T08:16:36;10.13;;;4.43;;
19525;SDS011;9907;42.676;26.348;2022-11-23T08:19:01;8.27;;;4.17;;
19525;SDS011;9907;42.676;26.348;2022-11-23T08:21:27;10.17;;;4.70;;
19525;SDS011;9907;42.676;26.348;2022-11-23T08:23:52;30.90;;;11.87;;
19525;SDS011;9907;42.676;26.348;2022-11-23T08:26:18;17.37;;;7.90;;
19525;SDS011;9907;42.676;26.348;2022-11-23T08:28:43;14.80;;;5.87;;
19525;SDS011;9907;42.676;26.348;2022-11-23T08:31:09;9.47;;;5.73;;
19525;SDS011;9907;42.676;26.348;2022-11-23T08:33:35;10.03;;;5.67;;
19525;SDS011;9907;42.676;26.348;2022-11-23T08:36:02;8.77;;;4.87;;
19525;SDS011;9907;42.676;26.348;2022-11-23T08:38:29;18.07;;;9.07;;
19525;SDS011;9907;42.676;26.348;2022-11-23T08:41:01;18.80;;;8.27;;
19525;SDS011;9907;42.676;26.348;2022-11-23T08:43:29;14.57;;;7.93;;
19525;SDS011;9907;42.676;26.348;2022-11-23T08:45:57;8.67;;;4.60;;
19525;SDS011;9907;42.676;26.348;2022-11-23T08:48:23;7.90;;;4.80;;
19525;SDS011;9907;42.676;26.348;2022-11-23T08:50:50;8.27;;;4.53;;
19525;SDS011;9907;42.676;26.348;2022-11-23T08:53:16;8.57;;;4.50;;
19525;SDS011;9907;42.676;26.348;2022-11-23T08:55:42;10.90;;;4.40;;
19525;SDS011;9907;42.676;26.348;2022-11-23T08:58:07;8.53;;;5.00;;
19525;SDS011;9907;42.676;26.348;2022-11-23T09:00:33;6.07;;;3.40;;
19525;SDS011;9907;42.676;26.348;2022-11-23T09:02:59;7.33;;;3.63;;
19525;SDS011;9907;42.676;26.348;2022-11-23T09:05:26;9.43;;;3.90;;
19525;SDS011;9907;42.676;26.348;2022-11-23T09:07:52;8.83;;;4.47;;
19525;SDS011;9907;42.676;26.348;2022-11-23T09:10:17;4.57;;;2.83;;
19525;SDS011;9907;42.676;26.348;2022-11-23T09:12:43;6.87;;;4.10;;
19525;SDS011;9907;42.676;26.348;2022-11-23T09:15:08;7.77;;;4.50;;
19525;SDS011;9907;42.676;26.348;2022-11-23T09:17:34;6.73;;;4.27;;
19525;SDS011;9907;42.676;26.348;2022-11-23T09:20:00;7.40;;;4.30;;
19525;SDS011;9907;42.676;26.348;2022-11-23T09:22:25;5.93;;;3.70;;
19525;SDS011;9907;42.676;26.348;2022-11-23T09:24:52;7.93;;;4.13;;
19525;SDS011;9907;42.676;26.348;2022-11-23T09:27:17;7.20;;;3.73;;
19525;SDS011;9907;42.676;26.348;2022-11-23T09:29:43;7.63;;;3.70;;
19525;SDS011;9907;42.676;26.348;2022-11-23T09:32:09;7.23;;;3.63;;
19525;SDS011;9907;42.676;26.348;2022-11-23T09:34:35;7.73;;;4.67;;
19525;SDS011;9907;42.676;26.348;2022-11-23T09:37:01;8.83;;;4.50;;
19525;SDS011;9907;42.676;26.348;2022-11-23T09:39:26;7.73;;;4.00;;
19525;SDS011;9907;42.676;26.348;2022-11-23T09:49:59;9.30;;;4.97;;
19525;SDS011;9907;42.676;26.348;2022-11-23T09:52:35;7.73;;;5.20;;
19525;SDS011;9907;42.676;26.348;2022-11-23T09:55:11;13.00;;;5.83;;
19525;SDS011;9907;42.676;26.348;2022-11-23T09:58:00;12.37;;;6.67;;
19525;SDS011;9907;42.676;26.348;2022-11-23T10:00:34;13.30;;;8.70;;
19525;SDS011;9907;42.676;26.348;2022-11-23T10:03:03;10.10;;;7.40;;
19525;SDS011;9907;42.676;26.348;2022-11-23T10:05:30;10.60;;;7.00;;
19525;SDS011;9907;42.676;26.348;2022-11-23T10:08:04;11.47;;;6.07;;
19525;SDS011;9907;42.676;26.348;2022-11-23T10:23:54;11.07;;;4.80;;
19525;SDS011;9907;42.676;26.348;2022-11-23T10:26:26;11.77;;;6.67;;
19525;SDS011;9907;42.676;26.348;2022-11-23T10:28:57;10.00;;;4.67;;
19525;SDS011;9907;42.676;26.348;2022-11-23T10:31:34;7.70;;;2.47;;
19525;SDS011;9907;42.676;26.348;2022-11-23T10:34:07;3.53;;;1.83;;
19525;SDS011;9907;42.676;26.348;2022-11-23T10:36:35;4.57;;;1.90;;
19525;SDS011;9907;42.676;26.348;2022-11-23T10:39:04;5.43;;;2.47;;
19525;SDS011;9907;42.676;26.348;2022-11-23T10:41:58;4.27;;;2.40;;
19525;SDS011;9907;42.676;26.348;2022-11-23T10:44:30;4.83;;;1.90;;
19525;SDS011;9907;42.676;26.348;2022-11-23T10:46:58;4.67;;;1.80;;
19525;SDS011;9907;42.676;26.348;2022-11-23T10:49:31;2.43;;;1.50;;
19525;SDS011;9907;42.676;26.348;2022-11-23T10:54:34;4.60;;;2.47;;
19525;SDS011;9907;42.676;26.348;2022-11-23T10:57:46;3.00;;;2.03;;
19525;SDS011;9907;42.676;26.348;2022-11-23T11:02:41;6.67;;;2.70;;
19525;SDS011;9907;42.676;26.348;2022-11-23T11:05:14;4.00;;;2.13;;
19525;SDS011;9907;42.676;26.348;2022-11-23T11:08:15;3.60;;;1.97;;
19525;SDS011;9907;42.676;26.348;2022-11-23T11:10:46;5.50;;;1.73;;
19525;SDS011;9907;42.676;26.348;2022-11-23T11:13:43;4.43;;;1.30;;
19525;SDS011;9907;42.676;26.348;2022-11-23T11:18:58;3.30;;;1.60;;
19525;SDS011;9907;42.676;26.348;2022-11-23T11:21:35;3.23;;;1.87;;
19525;SDS011;9907;42.676;26.348;2022-11-23T11:24:11;3.80;;;2.00;;
19525;SDS011;9907;42.676;26.348;2022-11-23T11:27:49;4.23;;;2.00;;
19525;SDS011;9907;42.676;26.348;2022-11-23T11:34:51;6.23;;;2.27;;
19525;SDS011;9907;42.676;26.348;2022-11-23T11:37:27;4.97;;;2.13;;
19525;SDS011;9907;42.676;26.348;2022-11-23T11:43:14;4.00;;;1.60;;
19525;SDS011;9907;42.676;26.348;2022-11-23T11:45:21;2.73;;;1.40;;
19525;SDS011;9907;42.676;26.348;2022-11-23T11:47:58;3.83;;;2.00;;
19525;SDS011;9907;42.676;26.348;2022-11-23T11:50:32;5.83;;;1.97;;
19525;SDS011;9907;42.676;26.348;2022-11-23T11:53:07;5.40;;;2.10;;
19525;SDS011;9907;42.676;26.348;2022-11-23T11:58:15;2.87;;;2.10;;
19525;SDS011;9907;42.676;26.348;2022-11-23T12:00:41;3.87;;;2.37;;
19525;SDS011;9907;42.676;26.348;2022-11-23T12:06:02;5.57;;;2.23;;
19525;SDS011;9907;42.676;26.348;2022-11-23T12:08:58;3.50;;;2.50;;
19525;SDS011;9907;42.676;26.348;2022-11-23T12:11:31;4.70;;;2.27;;
19525;SDS011;9907;42.676;26.348;2022-11-23T12:14:00;5.30;;;2.00;;
19525;SDS011;9907;42.676;26.348;2022-11-23T12:38:54;5.30;;;4.80;;
19525;SDS011;9907;42.676;26.348;2022-11-23T12:42:33;3.77;;;2.50;;
19525;SDS011;9907;42.676;26.348;2022-11-23T12:55:53;3.33;;;1.40;;
19525;SDS011;9907;42.676;26.348;2022-11-23T12:58:35;3.70;;;1.50;;
19525;SDS011;9907;42.676;26.348;2022-11-23T13:01:04;5.00;;;1.80;;
19525;SDS011;9907;42.676;26.348;2022-11-23T13:18:08;4.47;;;1.80;;
19525;SDS011;9907;42.676;26.348;2022-11-23T13:23:37;4.30;;;1.80;;
19525;SDS011;9907;42.676;26.348;2022-11-23T13:26:19;4.27;;;2.00;;
19525;SDS011;9907;42.676;26.348;2022-11-23T13:28:46;2.20;;;1.60;;
19525;SDS011;9907;42.676;26.348;2022-11-23T13:33:40;4.13;;;2.47;;
19525;SDS011;9907;42.676;26.348;2022-11-23T13:36:49;3.40;;;2.50;;
19525;SDS011;9907;42.676;26.348;2022-11-23T13:39:02;3.40;;;2.47;;
19525;SDS011;9907;42.676;26.348;2022-11-23T13:44:22;5.37;;;2.40;;
19525;SDS011;9907;42.676;26.348;2022-11-23T13:52:16;4.77;;;3.23;;
19525;SDS011;9907;42.676;26.348;2022-11-23T13:57:27;3.50;;;2.60;;
19525;SDS011;9907;42.676;26.348;2022-11-23T13:59:53;3.17;;;1.97;;
19525;SDS011;9907;42.676;26.348;2022-11-23T14:04:48;4.33;;;2.10;;
19525;SDS011;9907;42.676;26.348;2022-11-23T14:12:52;4.10;;;3.27;;
19525;SDS011;9907;42.676;26.348;2022-11-23T14:15:38;4.53;;;3.53;;
19525;SDS011;9907;42.676;26.348;2022-11-23T14:26:37;2.60;;;1.60;;
19525;SDS011;9907;42.676;26.348;2022-11-23T14:29:19;2.90;;;1.83;;
19525;SDS011;9907;42.676;26.348;2022-11-23T14:40:25;4.43;;;1.70;;
19525;SDS011;9907;42.676;26.348;2022-11-23T14:43:11;5.90;;;2.37;;
19525;SDS011;9907;42.676;26.348;2022-11-23T14:45:41;3.50;;;2.90;;
19525;SDS011;9907;42.676;26.348;2022-11-23T14:51:18;9.47;;;6.63;;
19525;SDS011;9907;42.676;26.348;2022-11-23T14:53:47;7.10;;;4.07;;
19525;SDS011;9907;42.676;26.348;2022-11-23T14:56:20;6.67;;;3.63;;
19525;SDS011;9907;42.676;26.348;2022-11-23T14:58:49;3.90;;;3.33;;
19525;SDS011;9907;42.676;26.348;2022-11-23T15:01:17;22.63;;;15.77;;
19525;SDS011;9907;42.676;26.348;2022-11-23T15:03:53;8.03;;;5.17;;
19525;SDS011;9907;42.676;26.348;2022-11-23T15:06:20;6.80;;;4.70;;
19525;SDS011;9907;42.676;26.348;2022-11-23T15:09:01;10.30;;;9.10;;
19525;SDS011;9907;42.676;26.348;2022-11-23T15:11:33;6.23;;;5.30;;
19525;SDS011;9907;42.676;26.348;2022-11-23T15:14:01;5.13;;;4.67;;
19525;SDS011;9907;42.676;26.348;2022-11-23T15:16:27;6.97;;;4.10;;
19525;SDS011;9907;42.676;26.348;2022-11-23T15:18:53;6.43;;;4.50;;
19525;SDS011;9907;42.676;26.348;2022-11-23T15:21:20;6.40;;;5.03;;
19525;SDS011;9907;42.676;26.348;2022-11-23T15:23:49;6.97;;;5.40;;
19525;SDS011;9907;42.676;26.348;2022-11-23T15:28:45;6.87;;;5.70;;
19525;SDS011;9907;42.676;26.348;2022-11-23T15:31:44;6.17;;;5.30;;
19525;SDS011;9907;42.676;26.348;2022-11-23T15:34:11;7.17;;;5.87;;
19525;SDS011;9907;42.676;26.348;2022-11-23T15:36:40;7.97;;;6.67;;
19525;SDS011;9907;42.676;26.348;2022-11-23T15:39:17;13.30;;;9.87;;
19525;SDS011;9907;42.676;26.348;2022-11-23T15:41:46;12.30;;;8.17;;
19525;SDS011;9907;42.676;26.348;2022-11-23T15:44:15;8.60;;;6.50;;
19525;SDS011;9907;42.676;26.348;2022-11-23T15:46:48;8.43;;;7.40;;
19525;SDS011;9907;42.676;26.348;2022-11-23T15:49:22;10.67;;;8.00;;
19525;SDS011;9907;42.676;26.348;2022-11-23T15:51:48;10.77;;;8.60;;
19525;SDS011;9907;42.676;26.348;2022-11-23T15:54:17;14.23;;;10.10;;
19525;SDS011;9907;42.676;26.348;2022-11-23T15:56:46;13.33;;;8.33;;
19525;SDS011;9907;42.676;26.348;2022-11-23T15:59:24;12.27;;;9.63;;
19525;SDS011;9907;42.676;26.348;2022-11-23T16:01:56;12.93;;;10.53;;
19525;SDS011;9907;42.676;26.348;2022-11-23T16:06:50;8.63;;;7.17;;
19525;SDS011;9907;42.676;26.348;2022-11-23T16:11:59;9.10;;;7.50;;
19525;SDS011;9907;42.676;26.348;2022-11-23T16:14:28;9.67;;;8.67;;
19525;SDS011;9907;42.676;26.348;2022-11-23T16:19:44;11.37;;;10.27;;
19525;SDS011;9907;42.676;26.348;2022-11-23T16:25:50;13.00;;;9.30;;
19525;SDS011;9907;42.676;26.348;2022-11-23T16:28:22;9.87;;;8.97;;
19525;SDS011;9907;42.676;26.348;2022-11-23T16:30:54;12.23;;;10.93;;
19525;SDS011;9907;42.676;26.348;2022-11-23T16:33:21;11.47;;;8.33;;
19525;SDS011;9907;42.676;26.348;2022-11-23T16:35:47;9.40;;;8.03;;
19525;SDS011;9907;42.676;26.348;2022-11-23T16:38:13;11.53;;;7.73;;
19525;SDS011;9907;42.676;26.348;2022-11-23T16:40:39;8.17;;;7.37;;
19525;SDS011;9907;42.676;26.348;2022-11-23T16:43:06;9.83;;;7.20;;
19525;SDS011;9907;42.676;26.348;2022-11-23T16:45:31;9.53;;;6.93;;
19525;SDS011;9907;42.676;26.348;2022-11-23T16:47:58;10.07;;;6.90;;
19525;SDS011;9907;42.676;26.348;2022-11-23T16:50:27;13.03;;;7.37;;
19525;SDS011;9907;42.676;26.348;2022-11-23T16:53:11;10.23;;;6.80;;
19525;SDS011;9907;42.676;26.348;2022-11-23T16:55:38;8.73;;;6.37;;
19525;SDS011;9907;42.676;26.348;2022-11-23T16:58:04;6.43;;;5.50;;
19525;SDS011;9907;42.676;26.348;2022-11-23T17:00:30;5.80;;;4.50;;
19525;SDS011;9907;42.676;26.348;2022-11-23T17:02:57;7.40;;;5.30;;
19525;SDS011;9907;42.676;26.348;2022-11-23T17:05:23;9.53;;;6.07;;
19525;SDS011;9907;42.676;26.348;2022-11-23T17:07:48;8.00;;;5.53;;
19525;SDS011;9907;42.676;26.348;2022-11-23T17:10:14;8.87;;;5.63;;
19525;SDS011;9907;42.676;26.348;2022-11-23T17:12:41;9.77;;;6.23;;
19525;SDS011;9907;42.676;26.348;2022-11-23T17:15:13;8.20;;;6.60;;
19525;SDS011;9907;42.676;26.348;2022-11-23T17:17:39;9.57;;;6.90;;
19525;SDS011;9907;42.676;26.348;2022-11-23T17:20:07;11.00;;;6.50;;
19525;SDS011;9907;42.676;26.348;2022-11-23T17:22:36;12.57;;;7.07;;
19525;SDS011;9907;42.676;26.348;2022-11-23T17:25:02;11.50;;;7.90;;
19525;SDS011;9907;42.676;26.348;2022-11-23T17:27:27;9.40;;;8.20;;
19525;SDS011;9907;42.676;26.348;2022-11-23T17:29:58;11.50;;;8.43;;
19525;SDS011;9907;42.676;26.348;2022-11-23T17:32:25;13.47;;;8.93;;